createdAt,value
2019-02-20T00:00:50.065Z,18.80
2019-02-20T00:03:20.904Z,18.80
2019-02-20T00:05:52.050Z,18.80
2019-02-20T00:08:23.270Z,18.80
2019-02-20T00:10:54.333Z,18.80
2019-02-20T00:13:25.785Z,18.80
2019-02-20T00:15:56.961Z,18.80
2019-02-20T00:18:28.085Z,18.80
2019-02-20T00:20:59.169Z,18.80
2019-02-20T00:23:29.798Z,18.70
2019-02-20T00:26:00.884Z,18.70
2019-02-20T00:28:31.910Z,18.70
2019-02-20T00:31:02.634Z,18.70
2019-02-20T00:33:33.651Z,18.70
2019-02-20T00:36:04.941Z,18.70
2019-02-20T00:38:35.995Z,18.70
2019-02-20T00:41:07.359Z,18.70
2019-02-20T00:43:40.126Z,18.70
2019-02-20T00:46:35.124Z,18.70
2019-02-20T00:49:27.898Z,18.70
2019-02-20T00:52:11.918Z,18.70
2019-02-20T00:54:42.538Z,18.70
2019-02-20T00:57:13.902Z,18.70
2019-02-20T00:59:44.230Z,18.70
2019-02-20T01:02:15.267Z,18.70
2019-02-20T01:04:45.599Z,18.70
2019-02-20T01:07:16.328Z,18.70
2019-02-20T01:09:46.654Z,18.70
2019-02-20T01:12:18.637Z,18.70
2019-02-20T01:14:48.945Z,18.70
2019-02-20T01:17:19.983Z,18.60
2019-02-20T01:19:50.690Z,18.60
2019-02-20T01:22:21.377Z,18.60
2019-02-20T01:24:51.665Z,18.60
2019-02-20T01:27:22.727Z,18.60
2019-02-20T01:29:53.069Z,18.60
2019-02-20T01:32:24.087Z,18.60
2019-02-20T01:34:55.221Z,18.60
2019-02-20T01:37:26.679Z,18.60
2019-02-20T01:39:57.831Z,18.60
2019-02-20T01:42:28.767Z,18.60
2019-02-20T01:44:59.794Z,18.60
2019-02-20T01:47:30.976Z,18.60
2019-02-20T01:50:02.389Z,18.60
2019-02-20T01:52:33.839Z,18.60
2019-02-20T01:55:05.650Z,18.60
2019-02-20T01:57:36.743Z,18.60
2019-02-20T02:00:09.072Z,18.60
2019-02-20T02:02:40.413Z,18.60
2019-02-20T02:05:15.301Z,18.60
2019-02-20T02:07:44.695Z,18.60
2019-02-20T02:10:15.837Z,18.60
2019-02-20T02:12:47.291Z,18.60
2019-02-20T02:15:20.726Z,18.60
2019-02-20T02:17:51.598Z,18.60
2019-02-20T02:20:22.673Z,18.60
2019-02-20T02:22:53.502Z,18.50
2019-02-20T02:25:24.763Z,18.60
2019-02-20T02:27:56.729Z,18.50
2019-02-20T02:30:28.191Z,18.60
2019-02-20T02:32:59.101Z,18.50
2019-02-20T02:35:31.986Z,18.50
2019-02-20T02:38:03.463Z,18.50
2019-02-20T02:40:34.611Z,18.50
2019-02-20T02:43:05.737Z,18.50
2019-02-20T02:45:37.173Z,18.50
2019-02-20T02:48:08.326Z,18.50
2019-02-20T02:50:39.706Z,18.50
2019-02-20T02:53:11.526Z,18.50
2019-02-20T02:55:42.593Z,18.50
2019-02-20T02:58:13.818Z,18.50
2019-02-20T03:00:45.303Z,18.50
2019-02-20T03:03:16.649Z,18.50
2019-02-20T03:05:48.174Z,18.50
2019-02-20T03:08:19.311Z,18.40
2019-02-20T03:10:51.378Z,18.40
2019-02-20T03:13:22.024Z,18.50
2019-02-20T03:15:53.085Z,18.50
2019-02-20T03:18:23.486Z,18.40
2019-02-20T03:20:54.420Z,18.50
2019-02-20T03:23:24.805Z,18.50
2019-02-20T03:25:55.794Z,18.50
2019-02-20T03:28:26.191Z,18.40
2019-02-20T03:30:56.896Z,18.40
2019-02-20T03:33:27.983Z,18.40
2019-02-20T03:35:59.145Z,18.40
2019-02-20T03:38:30.746Z,18.40
2019-02-20T03:41:01.978Z,18.40
2019-02-20T03:43:32.876Z,18.40
2019-02-20T03:46:04.006Z,18.40
2019-02-20T03:48:35.456Z,18.40
2019-02-20T03:51:06.211Z,18.50
2019-02-20T03:53:37.129Z,18.40
2019-02-20T03:56:07.982Z,18.50
2019-02-20T03:58:39.110Z,18.50
2019-02-20T04:01:09.945Z,18.50
2019-02-20T04:03:41.092Z,18.50
2019-02-20T04:06:12.545Z,18.50
2019-02-20T04:08:43.538Z,18.50
2019-02-20T04:11:14.831Z,18.50
2019-02-20T04:13:45.973Z,18.50
2019-02-20T04:16:16.808Z,18.50
2019-02-20T04:18:47.952Z,18.50
2019-02-20T04:21:19.093Z,18.50
2019-02-20T04:23:50.562Z,18.50
2019-02-20T04:26:21.694Z,18.50
2019-02-20T04:28:53.782Z,18.50
2019-02-20T04:31:24.602Z,18.50
2019-02-20T04:33:55.751Z,18.50
2019-02-20T04:36:26.878Z,18.50
2019-02-20T04:38:58.177Z,18.50
2019-02-20T04:41:29.476Z,18.50
2019-02-20T04:44:00.346Z,18.50
2019-02-20T04:46:31.771Z,18.50
2019-02-20T04:49:03.003Z,18.50
2019-02-20T04:51:34.054Z,18.50
2019-02-20T04:54:12.988Z,18.50
2019-02-20T04:56:38.613Z,18.50
2019-02-20T04:59:09.327Z,18.50
2019-02-20T05:01:39.617Z,18.50
2019-02-20T05:04:10.684Z,18.50
2019-02-20T05:06:41.101Z,18.50
2019-02-20T05:09:11.806Z,18.50
2019-02-20T05:11:42.179Z,18.50
2019-02-20T05:14:12.862Z,18.50
2019-02-20T05:16:43.355Z,18.50
2019-02-20T05:19:14.184Z,18.50
2019-02-20T05:21:44.896Z,18.50
2019-02-20T05:24:24.097Z,18.50
2019-02-20T05:26:47.663Z,18.50
2019-02-20T05:29:18.720Z,18.40
2019-02-20T05:31:49.026Z,18.50
2019-02-20T05:34:19.502Z,18.50
2019-02-20T05:36:50.951Z,18.50
2019-02-20T05:39:22.090Z,18.40
2019-02-20T05:41:52.931Z,18.50
2019-02-20T05:44:24.070Z,18.50
2019-02-20T05:46:55.219Z,18.40
2019-02-20T05:49:26.467Z,18.40
2019-02-20T05:51:57.602Z,18.60
2019-02-20T05:54:34.632Z,18.60
2019-02-20T05:57:01.723Z,18.80
2019-02-20T05:59:32.883Z,18.90
2019-02-20T06:02:03.735Z,19.00
2019-02-20T06:04:34.043Z,19.10
2019-02-20T06:07:08.904Z,19.20
2019-02-20T06:09:39.294Z,19.30
2019-02-20T06:12:11.058Z,19.30
2019-02-20T06:14:42.068Z,19.30
2019-02-20T06:17:12.538Z,19.40
2019-02-20T06:19:42.783Z,19.40
2019-02-20T06:22:13.789Z,19.50
2019-02-20T06:24:44.463Z,19.60
2019-02-20T06:27:15.161Z,19.60
2019-02-20T06:29:45.574Z,19.60
2019-02-20T06:32:16.827Z,19.70
2019-02-20T06:34:48.944Z,19.70
2019-02-20T06:37:20.358Z,19.70
2019-02-20T06:39:50.680Z,19.80
2019-02-20T06:42:21.705Z,19.90
2019-02-20T06:44:52.115Z,19.90
2019-02-20T06:47:23.070Z,20.00
2019-02-20T06:49:53.417Z,20.00
2019-02-20T06:52:24.360Z,20.00
2019-02-20T06:54:54.573Z,20.10
2019-02-20T06:57:25.907Z,20.10
2019-02-20T06:59:56.326Z,20.20
2019-02-20T07:02:27.573Z,20.20
2019-02-20T07:05:35.166Z,20.30
2019-02-20T07:08:58.958Z,20.40
2019-02-20T07:12:08.775Z,20.40
2019-02-20T07:15:12.125Z,20.50
2019-02-20T07:18:09.142Z,20.60
2019-02-20T07:21:26.751Z,20.60
2019-02-20T07:24:25.253Z,20.60
2019-02-20T07:27:26.983Z,20.70
2019-02-20T07:30:03.135Z,20.60
2019-02-20T07:32:35.770Z,20.50
2019-02-20T07:35:08.983Z,20.40
2019-02-20T07:37:39.927Z,20.30
2019-02-20T07:40:12.790Z,20.20
2019-02-20T07:42:43.526Z,20.10
2019-02-20T07:45:15.900Z,20.00
2019-02-20T07:47:46.938Z,20.00
2019-02-20T07:50:19.826Z,20.00
2019-02-20T07:52:52.934Z,19.90
2019-02-20T07:55:24.089Z,19.90
2019-02-20T07:57:54.930Z,19.90
2019-02-20T08:00:26.039Z,19.80
2019-02-20T08:02:56.865Z,19.90
2019-02-20T08:05:28.010Z,19.80
2019-02-20T08:07:59.153Z,19.80
2019-02-20T08:10:29.514Z,19.80
2019-02-20T08:13:00.217Z,19.80
2019-02-20T08:15:30.637Z,19.80
2019-02-20T08:18:01.588Z,19.80
2019-02-20T08:20:31.903Z,19.80
2019-02-20T08:23:02.978Z,19.80
2019-02-20T08:25:33.351Z,19.70
2019-02-20T08:28:04.319Z,19.70
2019-02-20T08:30:34.667Z,19.70
2019-02-20T08:33:05.331Z,19.70
2019-02-20T08:35:36.547Z,19.70
2019-02-20T08:38:08.268Z,19.70
2019-02-20T08:40:39.297Z,19.70
2019-02-20T08:43:10.303Z,19.70
2019-02-20T08:45:42.319Z,19.70
2019-02-20T08:48:13.154Z,19.70
2019-02-20T08:50:44.609Z,19.70
2019-02-20T08:53:15.704Z,19.70
2019-02-20T08:55:47.051Z,19.70
2019-02-20T08:58:17.782Z,19.70
2019-02-20T09:00:48.083Z,19.70
2019-02-20T09:03:19.051Z,19.70
2019-02-20T09:05:49.438Z,19.70
2019-02-20T09:08:20.171Z,19.70
2019-02-20T09:10:50.510Z,19.70
2019-02-20T09:13:21.028Z,19.70
2019-02-20T09:15:51.755Z,19.70
2019-02-20T09:18:22.526Z,19.70
2019-02-20T09:20:53.145Z,19.70
2019-02-20T09:23:23.719Z,19.70
2019-02-20T09:25:54.167Z,19.70
2019-02-20T09:28:26.167Z,19.70
2019-02-20T09:30:57.410Z,19.70
2019-02-20T09:33:28.514Z,19.70
2019-02-20T09:35:59.981Z,19.70
2019-02-20T09:38:31.422Z,19.70
2019-02-20T09:41:02.563Z,19.70
2019-02-20T09:43:33.710Z,19.70
2019-02-20T09:46:04.844Z,19.70
2019-02-20T09:48:35.702Z,19.70
2019-02-20T09:51:06.526Z,19.70
2019-02-20T09:53:37.976Z,19.70
2019-02-20T09:56:09.734Z,19.70
2019-02-20T09:58:41.182Z,19.70
2019-02-20T10:01:12.745Z,19.70
2019-02-20T10:03:43.774Z,19.70
2019-02-20T10:06:14.915Z,19.70
2019-02-20T10:08:46.094Z,19.70
2019-02-20T10:11:17.205Z,19.70
2019-02-20T10:13:48.357Z,19.70
2019-02-20T10:16:19.493Z,19.70
2019-02-20T10:18:50.550Z,19.80
2019-02-20T10:21:21.479Z,19.80
2019-02-20T10:23:52.617Z,19.80
2019-02-20T10:26:23.482Z,19.80
2019-02-20T10:28:54.290Z,19.80
2019-02-20T10:31:25.741Z,19.80
2019-02-20T10:33:56.888Z,19.80
2019-02-20T10:36:27.727Z,19.80
2019-02-20T10:38:58.867Z,19.80
2019-02-20T10:41:29.699Z,19.80
2019-02-20T10:44:00.874Z,19.80
2019-02-20T10:46:31.710Z,19.80
2019-02-20T10:49:03.529Z,19.70
2019-02-20T10:51:34.849Z,19.70
2019-02-20T10:54:05.721Z,19.70
2019-02-20T10:56:36.576Z,19.80
2019-02-20T10:59:07.431Z,19.80
2019-02-20T11:01:38.542Z,19.80
2019-02-20T11:04:10.097Z,19.80
2019-02-20T11:06:41.446Z,19.80
2019-02-20T11:09:12.593Z,19.80
2019-02-20T11:11:43.886Z,19.80
2019-02-20T11:14:14.878Z,19.80
2019-02-20T11:16:46.194Z,19.80
2019-02-20T11:19:17.161Z,19.80
2019-02-20T11:21:48.294Z,19.90
2019-02-20T11:24:19.486Z,19.90
2019-02-20T11:26:55.017Z,19.90
2019-02-20T11:29:23.048Z,19.90
2019-02-20T11:31:54.115Z,19.90
2019-02-20T11:34:25.566Z,19.90
2019-02-20T11:36:57.029Z,19.90
2019-02-20T11:39:28.174Z,19.90
2019-02-20T11:41:58.995Z,19.90
2019-02-20T11:44:29.804Z,19.90
2019-02-20T11:47:00.971Z,19.90
2019-02-20T11:49:32.041Z,19.90
2019-02-20T11:52:02.953Z,19.90
2019-02-20T11:54:34.093Z,19.90
2019-02-20T11:57:05.264Z,19.90
2019-02-20T11:59:37.009Z,19.90
2019-02-20T12:02:08.146Z,19.90
2019-02-20T12:04:39.280Z,19.90
2019-02-20T12:07:11.051Z,19.90
2019-02-20T12:09:41.874Z,19.90
2019-02-20T12:12:13.022Z,19.90
2019-02-20T12:14:43.912Z,19.90
2019-02-20T12:17:15.366Z,19.90
2019-02-20T12:19:46.454Z,19.90
2019-02-20T12:22:17.287Z,19.90
2019-02-20T12:24:48.742Z,19.80
2019-02-20T12:27:19.887Z,19.80
2019-02-20T12:29:50.946Z,19.80
2019-02-20T12:32:22.488Z,19.80
2019-02-20T12:34:53.433Z,19.80
2019-02-20T12:37:25.124Z,19.80
2019-02-20T12:39:56.834Z,19.80
2019-02-20T12:42:28.600Z,19.80
2019-02-20T12:44:59.465Z,19.80
2019-02-20T12:47:31.191Z,19.90
2019-02-20T12:50:02.331Z,19.80
2019-02-20T12:52:33.779Z,19.90
2019-02-20T12:55:05.540Z,19.90
2019-02-20T12:57:36.682Z,19.90
2019-02-20T13:00:08.472Z,19.90
2019-02-20T13:02:39.271Z,19.90
2019-02-20T13:05:10.800Z,19.90
2019-02-20T13:07:42.182Z,19.90
2019-02-20T13:10:13.496Z,19.90
2019-02-20T13:12:44.774Z,20.00
2019-02-20T13:15:15.862Z,20.00
2019-02-20T13:17:47.342Z,20.00
2019-02-20T13:20:18.510Z,20.00
2019-02-20T13:22:49.347Z,20.00
2019-02-20T13:25:21.119Z,20.00
2019-02-20T13:27:52.246Z,20.00
2019-02-20T13:30:23.386Z,20.00
2019-02-20T13:32:54.570Z,20.00
2019-02-20T13:35:25.658Z,20.00
2019-02-20T13:37:56.822Z,20.00
2019-02-20T13:40:27.659Z,20.00
2019-02-20T13:42:58.827Z,20.00
2019-02-20T13:45:30.678Z,20.00
2019-02-20T13:48:02.199Z,20.00
2019-02-20T13:50:32.951Z,20.00
2019-02-20T13:53:03.995Z,20.00
2019-02-20T13:55:34.862Z,20.00
2019-02-20T13:58:05.996Z,20.00
2019-02-20T14:00:36.710Z,20.00
2019-02-20T14:03:09.179Z,20.00
2019-02-20T14:05:39.806Z,20.00
2019-02-20T14:08:10.542Z,20.00
2019-02-20T14:10:40.941Z,20.00
2019-02-20T14:13:11.651Z,20.00
2019-02-20T14:15:42.107Z,20.00
2019-02-20T14:18:12.653Z,20.00
2019-02-20T14:20:43.205Z,20.00
2019-02-20T14:23:14.042Z,20.00
2019-02-20T14:25:44.512Z,20.00
2019-02-20T14:28:15.701Z,20.00
2019-02-20T14:30:46.249Z,20.00
2019-02-20T14:33:18.300Z,20.00
2019-02-20T14:35:49.011Z,20.00
2019-02-20T14:38:20.277Z,20.00
2019-02-20T14:40:51.134Z,20.00
2019-02-20T14:43:22.577Z,20.00
2019-02-20T14:45:53.414Z,20.00
2019-02-20T14:48:25.153Z,20.00
2019-02-20T14:50:56.639Z,20.00
2019-02-20T14:53:28.203Z,19.90
2019-02-20T14:55:59.817Z,19.90
2019-02-20T14:58:31.310Z,19.90
2019-02-20T15:01:02.413Z,19.90
2019-02-20T15:03:33.253Z,19.90
2019-02-20T15:06:04.723Z,19.90
2019-02-20T15:08:37.151Z,19.90
2019-02-20T15:11:10.391Z,19.90
2019-02-20T15:13:41.515Z,19.90
2019-02-20T15:16:12.966Z,19.90
2019-02-20T15:18:44.410Z,20.00
2019-02-20T15:21:15.558Z,20.00
2019-02-20T15:23:47.027Z,20.00
2019-02-20T15:26:18.172Z,20.00
2019-02-20T15:28:49.614Z,20.00
2019-02-20T15:31:21.459Z,20.00
2019-02-20T15:33:52.823Z,20.00
2019-02-20T15:36:25.520Z,20.00
2019-02-20T15:38:56.982Z,20.00
2019-02-20T15:41:28.716Z,20.00
2019-02-20T15:43:59.538Z,20.00
2019-02-20T15:46:31.043Z,20.00
2019-02-20T15:49:02.470Z,20.00
2019-02-20T15:51:33.630Z,20.00
2019-02-20T15:54:05.058Z,20.00
2019-02-20T15:56:37.047Z,19.90
2019-02-20T15:59:08.481Z,19.90
2019-02-20T16:01:39.438Z,19.90
2019-02-20T16:04:10.840Z,19.90
2019-02-20T16:06:42.288Z,19.90
2019-02-20T16:09:13.471Z,19.90
2019-02-20T16:11:44.897Z,19.90
2019-02-20T16:14:16.344Z,19.90
2019-02-20T16:16:47.792Z,19.90
2019-02-20T16:19:18.656Z,19.90
2019-02-20T16:21:49.347Z,19.80
2019-02-20T16:24:20.048Z,19.80
2019-02-20T16:26:50.451Z,19.80
2019-02-20T16:29:21.396Z,19.80
2019-02-20T16:31:52.006Z,19.80
2019-02-20T16:34:23.155Z,19.80
2019-02-20T16:36:54.014Z,19.80
2019-02-20T16:39:25.018Z,19.80
2019-02-20T16:41:56.163Z,19.80
2019-02-20T16:44:27.624Z,19.80
2019-02-20T16:46:58.799Z,19.80
2019-02-20T16:49:30.504Z,19.80
2019-02-20T16:52:01.662Z,19.80
2019-02-20T16:54:33.282Z,19.80
2019-02-20T16:57:03.901Z,19.80
2019-02-20T16:59:37.006Z,19.80
2019-02-20T17:02:08.399Z,19.80
2019-02-20T17:04:39.588Z,19.70
2019-02-20T17:07:10.224Z,19.80
2019-02-20T17:09:41.404Z,19.70
2019-02-20T17:12:11.800Z,19.70
2019-02-20T17:14:43.069Z,19.70
2019-02-20T17:17:13.519Z,19.70
2019-02-20T17:19:44.377Z,19.80
2019-02-20T17:22:14.849Z,19.80
2019-02-20T17:24:46.433Z,19.80
2019-02-20T17:27:17.125Z,19.80
2019-02-20T17:29:47.708Z,19.80
2019-02-20T17:32:18.229Z,19.70
2019-02-20T17:34:48.887Z,19.70
2019-02-20T17:37:19.235Z,19.70
2019-02-20T17:39:49.938Z,19.70
2019-02-20T17:42:21.058Z,19.70
2019-02-20T17:44:52.463Z,19.70
2019-02-20T17:47:23.641Z,19.60
2019-02-20T17:49:54.771Z,19.60
2019-02-20T17:52:26.838Z,19.60
2019-02-20T17:54:57.970Z,19.60
2019-02-20T17:57:29.123Z,19.60
2019-02-20T18:00:00.391Z,19.60
2019-02-20T18:02:31.936Z,19.60
2019-02-20T18:05:03.260Z,19.50
2019-02-20T18:07:35.339Z,19.50
2019-02-20T18:10:07.200Z,19.50
2019-02-20T18:12:38.602Z,19.50
2019-02-20T18:15:09.776Z,19.50
2019-02-20T18:17:40.911Z,19.50
2019-02-20T18:20:12.635Z,19.50
2019-02-20T18:22:44.895Z,19.50
2019-02-20T18:25:15.781Z,19.50
2019-02-20T18:27:47.314Z,19.50
2019-02-20T18:30:18.739Z,19.50
2019-02-20T18:32:49.934Z,19.50
2019-02-20T18:35:21.405Z,19.50
2019-02-20T18:37:52.441Z,19.50
2019-02-20T18:40:24.367Z,19.40
2019-02-20T18:42:55.718Z,19.40
2019-02-20T18:45:27.003Z,19.50
2019-02-20T18:47:58.186Z,19.40
2019-02-20T18:50:29.352Z,19.40
2019-02-20T18:53:00.408Z,19.40
2019-02-20T18:55:31.676Z,19.40
2019-02-20T18:58:03.843Z,19.40
2019-02-20T19:00:35.374Z,19.40
2019-02-20T19:03:06.558Z,19.40
2019-02-20T19:05:37.765Z,19.40
2019-02-20T19:08:34.561Z,19.40
2019-02-20T19:11:19.345Z,19.40
2019-02-20T19:14:02.869Z,19.30
2019-02-20T19:17:08.336Z,19.30
2019-02-20T19:20:28.785Z,19.30
2019-02-20T19:23:37.695Z,19.30
2019-02-20T19:26:46.497Z,19.30
2019-02-20T19:29:40.910Z,19.30
2019-02-20T19:32:48.398Z,19.30
2019-02-20T19:36:06.509Z,19.30
2019-02-20T19:39:08.937Z,19.30
2019-02-20T19:42:20.771Z,19.20
2019-02-20T19:45:41.115Z,19.30
2019-02-20T19:48:43.126Z,19.30
2019-02-20T19:51:54.818Z,19.30
2019-02-20T19:54:45.948Z,19.40
2019-02-20T19:57:29.748Z,19.60
2019-02-20T20:00:27.810Z,19.70
2019-02-20T20:03:28.758Z,19.90
2019-02-20T20:06:25.941Z,20.00
2019-02-20T20:09:07.450Z,20.10
2019-02-20T20:12:46.753Z,20.20
2019-02-20T20:15:50.517Z,20.30
2019-02-20T20:19:20.573Z,20.40
2019-02-20T20:22:00.515Z,20.50
2019-02-20T20:25:18.572Z,20.60
2019-02-20T20:28:24.040Z,20.60
2019-02-20T20:31:29.677Z,20.70
2019-02-20T20:34:38.342Z,20.70
2019-02-20T20:37:30.042Z,20.80
2019-02-20T20:40:46.411Z,20.80
2019-02-20T20:43:47.003Z,20.80
2019-02-20T20:46:36.152Z,20.80
2019-02-20T20:49:44.656Z,20.80
2019-02-20T20:52:48.397Z,20.80
2019-02-20T20:55:54.760Z,20.90
2019-02-20T20:59:02.956Z,20.90
2019-02-20T21:01:42.986Z,20.90
2019-02-20T21:05:09.903Z,20.90
2019-02-20T21:08:11.584Z,20.90
2019-02-20T21:10:58.168Z,20.90
2019-02-20T21:14:06.483Z,20.90
2019-02-20T21:17:03.952Z,20.90
2019-02-20T21:20:09.946Z,20.90
2019-02-20T21:23:47.335Z,20.90
2019-02-20T21:27:08.650Z,20.80
2019-02-20T21:30:20.879Z,20.60
2019-02-20T21:33:48.719Z,20.50
2019-02-20T21:36:51.221Z,20.40
2019-02-20T21:39:52.476Z,20.30
2019-02-20T21:43:22.333Z,20.20
2019-02-20T21:46:28.978Z,20.10
2019-02-20T21:49:13.647Z,20.00
2019-02-20T21:52:29.337Z,20.00
2019-02-20T21:55:43.832Z,19.90
2019-02-20T21:58:33.139Z,19.90
2019-02-20T22:01:57.363Z,19.80
2019-02-20T22:04:49.465Z,19.80
2019-02-20T22:07:57.350Z,19.80
2019-02-20T22:11:07.050Z,19.70
2019-02-20T22:14:15.411Z,19.70
2019-02-20T22:17:27.129Z,19.60
2019-02-20T22:20:39.656Z,19.60
2019-02-20T22:23:45.063Z,19.60
2019-02-20T22:26:26.786Z,19.60
2019-02-20T22:29:33.528Z,19.50
2019-02-20T22:32:34.031Z,19.50
2019-02-20T22:35:52.558Z,19.50
2019-02-20T22:38:54.317Z,19.50
2019-02-20T22:41:57.468Z,19.40
2019-02-20T22:45:08.205Z,19.40
2019-02-20T22:48:03.088Z,19.40
2019-02-20T22:51:18.977Z,19.40
2019-02-20T22:54:20.470Z,19.40
2019-02-20T22:57:31.144Z,19.40
2019-02-20T23:00:59.113Z,19.40
2019-02-20T23:03:43.293Z,19.40
2019-02-20T23:06:48.894Z,19.40
2019-02-20T23:09:44.912Z,19.30
2019-02-20T23:12:52.801Z,19.30
2019-02-20T23:15:25.967Z,19.30
2019-02-20T23:17:56.753Z,19.30
2019-02-20T23:20:27.258Z,19.30
2019-02-20T23:22:57.510Z,19.30
2019-02-20T23:25:28.297Z,19.30
2019-02-20T23:28:00.190Z,19.20
2019-02-20T23:30:31.154Z,19.30
2019-02-20T23:33:01.435Z,19.30
2019-02-20T23:35:39.664Z,19.30
2019-02-20T23:38:10.001Z,19.30
2019-02-20T23:40:41.035Z,19.20
2019-02-20T23:43:11.350Z,19.20
2019-02-20T23:45:42.385Z,19.20
2019-02-20T23:48:12.643Z,19.20
2019-02-20T23:50:43.170Z,19.20
2019-02-20T23:53:13.657Z,19.20
2019-02-20T23:55:44.785Z,19.20
2019-02-20T23:58:32.985Z,19.20
